createdAt,value
2018-10-02T00:00:12.293Z,0.00
2018-10-02T00:01:43.664Z,0.00
2018-10-02T00:03:15.137Z,0.00
2018-10-02T00:04:46.718Z,0.00
2018-10-02T00:06:18.285Z,0.00
2018-10-02T00:07:49.864Z,0.00
2018-10-02T00:09:21.432Z,0.00
2018-10-02T00:10:53.308Z,0.00
2018-10-02T00:12:24.579Z,0.00
2018-10-02T00:13:56.154Z,0.00
2018-10-02T00:15:27.727Z,0.00
2018-10-02T00:16:59.300Z,0.00
2018-10-02T00:18:30.877Z,0.00
2018-10-02T00:20:02.548Z,0.00
2018-10-02T00:21:34.022Z,0.00
2018-10-02T00:23:05.595Z,0.00
2018-10-02T00:24:37.198Z,0.00
2018-10-02T00:26:08.742Z,0.00
2018-10-02T00:27:40.608Z,0.00
2018-10-02T00:29:11.889Z,0.00
2018-10-02T00:30:43.465Z,0.00
2018-10-02T00:32:15.272Z,0.00
2018-10-02T00:33:47.133Z,0.00
2018-10-02T00:35:18.184Z,0.00
2018-10-02T00:36:50.061Z,0.00
2018-10-02T00:38:21.431Z,0.00
2018-10-02T00:39:52.904Z,0.00
2018-10-02T00:41:24.480Z,0.00
2018-10-02T00:42:56.050Z,0.00
2018-10-02T00:44:27.624Z,0.00
2018-10-02T00:45:59.196Z,0.00
2018-10-02T00:47:30.769Z,0.00
2018-10-02T00:49:02.346Z,0.00
2018-10-02T00:50:33.917Z,0.00
2018-10-02T00:52:05.489Z,0.00
2018-10-02T00:53:37.064Z,0.00
2018-10-02T00:55:08.635Z,0.00
2018-10-02T00:56:40.408Z,0.00
2018-10-02T00:58:11.782Z,0.00
2018-10-02T00:59:43.658Z,0.00
2018-10-02T01:01:14.927Z,0.00
2018-10-02T01:02:46.507Z,0.00
2018-10-02T01:04:18.073Z,0.00
2018-10-02T01:05:49.647Z,0.00
2018-10-02T01:07:21.422Z,0.00
2018-10-02T01:08:52.995Z,0.00
2018-10-02T01:10:24.365Z,0.00
2018-10-02T01:11:55.939Z,0.00
2018-10-02T01:13:27.511Z,0.00
2018-10-02T01:14:59.185Z,0.00
2018-10-02T01:16:30.659Z,0.00
2018-10-02T01:18:02.231Z,0.00
2018-10-02T01:19:33.805Z,0.00
2018-10-02T01:21:05.677Z,0.00
2018-10-02T01:22:36.949Z,0.00
2018-10-02T01:24:08.523Z,0.00
2018-10-02T01:27:11.669Z,0.00
2018-10-02T01:28:43.243Z,0.00
2018-10-02T01:30:14.815Z,0.00
2018-10-02T01:31:46.388Z,0.00
2018-10-02T01:33:18.080Z,0.00
2018-10-02T01:36:21.107Z,0.00
2018-10-02T01:37:52.681Z,0.00
2018-10-02T01:39:24.253Z,0.00
2018-10-02T01:40:55.826Z,0.00
2018-10-02T01:42:27.399Z,0.00
2018-10-02T01:43:58.971Z,0.00
2018-10-02T01:45:30.545Z,0.00
2018-10-02T01:47:02.118Z,0.00
2018-10-02T01:48:33.691Z,0.00
2018-10-02T01:50:05.263Z,0.00
2018-10-02T01:51:37.237Z,0.00
2018-10-02T01:53:08.417Z,0.00
2018-10-02T01:54:39.985Z,0.00
2018-10-02T01:56:11.562Z,0.00
2018-10-02T01:57:43.128Z,0.00
2018-10-02T01:59:14.704Z,0.00
2018-10-02T02:00:46.282Z,0.00
2018-10-02T02:02:17.848Z,0.00
2018-10-02T02:03:49.421Z,0.00
2018-10-02T02:05:20.997Z,0.00
2018-10-02T02:06:52.798Z,0.00
2018-10-02T02:08:24.141Z,0.00
2018-10-02T02:09:55.813Z,0.00
2018-10-02T02:11:27.289Z,0.00
2018-10-02T02:12:58.871Z,0.00
2018-10-02T02:14:30.449Z,0.00
2018-10-02T02:16:02.005Z,0.00
2018-10-02T02:17:33.580Z,0.00
2018-10-02T02:19:05.175Z,0.00
2018-10-02T02:20:36.727Z,0.00
2018-10-02T02:22:08.696Z,0.00
2018-10-02T02:23:39.882Z,0.00
2018-10-02T02:25:11.442Z,0.00
2018-10-02T02:26:43.016Z,0.00
2018-10-02T02:28:14.838Z,0.00
2018-10-02T02:29:46.160Z,0.00
2018-10-02T02:31:17.736Z,0.00
2018-10-02T02:32:49.306Z,0.00
2018-10-02T02:34:20.879Z,0.00
2018-10-02T02:35:52.481Z,0.00
2018-10-02T02:37:24.027Z,0.00
2018-10-02T02:40:27.233Z,0.00
2018-10-02T02:41:58.753Z,0.00
2018-10-02T02:43:30.327Z,0.00
2018-10-02T02:45:01.889Z,0.00
2018-10-02T02:46:33.578Z,0.00
2018-10-02T02:48:05.034Z,0.00
2018-10-02T02:49:36.613Z,0.00
2018-10-02T02:51:08.184Z,0.00
2018-10-02T02:52:40.079Z,0.00
2018-10-02T02:54:11.363Z,0.00
2018-10-02T02:55:42.901Z,0.00
2018-10-02T02:57:14.474Z,0.00
2018-10-02T02:58:46.144Z,0.00
2018-10-02T03:00:17.618Z,0.00
2018-10-02T03:01:49.191Z,0.00
2018-10-02T03:03:20.785Z,0.00
2018-10-02T03:04:52.738Z,0.00
2018-10-02T03:06:23.907Z,0.00
2018-10-02T03:07:55.480Z,0.00
2018-10-02T03:09:27.054Z,0.00
2018-10-02T03:10:58.627Z,0.00
2018-10-02T03:12:30.198Z,0.00
2018-10-02T03:14:01.773Z,0.00
2018-10-02T03:15:33.373Z,0.00
2018-10-02T03:17:04.916Z,0.00
2018-10-02T03:18:36.488Z,0.00
2018-10-02T03:20:08.062Z,0.00
2018-10-02T03:21:39.685Z,0.00
2018-10-02T03:23:11.606Z,0.00
2018-10-02T03:24:42.796Z,0.00
2018-10-02T03:26:14.352Z,0.00
2018-10-02T03:29:17.596Z,0.00
2018-10-02T03:30:49.071Z,0.00
2018-10-02T03:32:20.641Z,0.00
2018-10-02T03:33:52.230Z,0.00
2018-10-02T03:35:23.786Z,0.00
2018-10-02T03:36:55.360Z,0.00
2018-10-02T03:38:26.932Z,0.00
2018-10-02T03:39:58.503Z,0.00
2018-10-02T03:41:30.195Z,0.00
2018-10-02T03:43:01.664Z,0.00
2018-10-02T03:44:33.245Z,0.00
2018-10-02T03:46:04.802Z,0.00
2018-10-02T03:47:36.366Z,0.00
2018-10-02T03:49:07.940Z,0.00
2018-10-02T03:50:39.538Z,0.00
2018-10-02T03:52:11.110Z,0.00
2018-10-02T03:53:42.963Z,0.00
2018-10-02T03:55:14.229Z,0.00
2018-10-02T03:56:45.801Z,0.00
2018-10-02T03:58:17.428Z,0.00
2018-10-02T03:59:49.168Z,0.00
2018-10-02T04:01:20.521Z,0.00
2018-10-02T04:04:24.271Z,0.00
2018-10-02T04:05:55.346Z,0.00
2018-10-02T04:07:26.819Z,0.00
2018-10-02T04:08:58.382Z,0.00
2018-10-02T04:10:30.547Z,0.00
2018-10-02T04:12:01.527Z,0.00
2018-10-02T04:13:33.126Z,0.00
2018-10-02T04:15:04.672Z,0.00
2018-10-02T04:16:36.246Z,0.00
2018-10-02T04:18:08.169Z,0.00
2018-10-02T04:19:39.693Z,0.00
2018-10-02T04:21:10.962Z,0.00
2018-10-02T04:22:42.539Z,0.00
2018-10-02T04:24:14.108Z,0.00
2018-10-02T04:25:45.680Z,0.00
2018-10-02T04:27:17.257Z,0.00
2018-10-02T04:28:48.835Z,0.00
2018-10-02T04:30:20.499Z,0.00
2018-10-02T04:31:51.972Z,0.00
2018-10-02T04:33:23.543Z,0.00
2018-10-02T04:34:55.132Z,0.00
2018-10-02T04:36:26.890Z,0.00
2018-10-02T04:37:58.261Z,0.00
2018-10-02T04:39:29.866Z,0.00
2018-10-02T04:41:01.405Z,0.00
2018-10-02T04:42:32.995Z,0.00
2018-10-02T04:44:04.550Z,0.00
2018-10-02T04:45:36.123Z,0.00
2018-10-02T04:47:07.706Z,0.00
2018-10-02T04:48:39.267Z,0.00
2018-10-02T04:50:10.840Z,0.00
2018-10-02T04:53:13.986Z,0.00
2018-10-02T04:54:45.655Z,0.00
2018-10-02T04:56:17.177Z,0.00
2018-10-02T04:57:48.704Z,0.00
2018-10-02T04:59:20.275Z,0.00
2018-10-02T05:02:23.438Z,0.00
2018-10-02T05:03:54.987Z,0.00
2018-10-02T05:05:26.584Z,0.00
2018-10-02T05:06:58.132Z,0.00
2018-10-02T05:08:29.860Z,0.00
2018-10-02T05:10:01.280Z,0.00
2018-10-02T05:11:32.853Z,0.00
2018-10-02T05:13:04.427Z,0.00
2018-10-02T05:14:36.093Z,0.00
2018-10-02T05:16:07.565Z,0.00
2018-10-02T05:17:39.138Z,0.00
2018-10-02T05:19:10.712Z,0.00
2018-10-02T05:20:42.353Z,0.00
2018-10-02T05:22:13.854Z,0.00
2018-10-02T05:23:45.477Z,0.00
2018-10-02T05:25:16.999Z,0.00
2018-10-02T05:26:48.622Z,0.00
2018-10-02T05:28:20.160Z,0.00
2018-10-02T05:29:51.737Z,0.00
2018-10-02T05:31:23.286Z,0.00
2018-10-02T05:32:55.142Z,0.00
2018-10-02T05:34:26.431Z,0.00
2018-10-02T05:35:58.004Z,0.00
2018-10-02T05:37:29.575Z,0.00
2018-10-02T05:39:01.147Z,0.00
2018-10-02T05:40:32.730Z,0.00
2018-10-02T05:42:04.290Z,0.00
2018-10-02T05:43:35.863Z,0.00
2018-10-02T05:45:07.441Z,0.00
2018-10-02T05:46:39.029Z,0.00
2018-10-02T05:48:10.595Z,0.00
2018-10-02T05:49:42.680Z,0.00
2018-10-02T05:51:13.823Z,0.00
2018-10-02T05:52:45.293Z,0.00
2018-10-02T05:54:16.864Z,0.00
2018-10-02T05:55:48.443Z,0.00
2018-10-02T05:57:20.109Z,0.00
2018-10-02T06:00:23.152Z,0.00
2018-10-02T06:01:54.729Z,0.00
2018-10-02T06:03:26.421Z,0.00
2018-10-02T06:04:57.867Z,0.00
2018-10-02T06:06:29.439Z,0.00
2018-10-02T06:08:01.017Z,0.00
2018-10-02T06:09:32.704Z,0.00
2018-10-02T06:11:04.152Z,0.00
2018-10-02T06:12:35.730Z,0.00
2018-10-02T06:14:07.295Z,0.00
2018-10-02T06:15:38.866Z,0.00
2018-10-02T06:17:10.445Z,0.00
2018-10-02T06:18:42.073Z,0.00
2018-10-02T06:20:13.582Z,0.00
2018-10-02T06:21:45.154Z,0.00
2018-10-02T06:23:16.729Z,0.00
2018-10-02T06:24:48.456Z,0.00
2018-10-02T06:26:19.867Z,0.00
2018-10-02T06:27:51.840Z,0.00
2018-10-02T06:29:23.022Z,0.00
2018-10-02T06:30:54.613Z,0.00
2018-10-02T06:32:26.155Z,0.00
2018-10-02T06:33:57.826Z,0.00
2018-10-02T06:35:29.300Z,0.00
2018-10-02T06:37:00.873Z,0.00
2018-10-02T06:38:32.570Z,0.00
2018-10-02T06:40:04.014Z,0.00
2018-10-02T06:41:35.603Z,0.00
2018-10-02T06:43:07.158Z,0.00
2018-10-02T06:44:38.790Z,0.00
2018-10-02T06:46:10.406Z,0.00
2018-10-02T06:47:42.381Z,0.00
2018-10-02T06:49:13.450Z,0.00
2018-10-02T06:50:45.035Z,0.00
2018-10-02T06:52:16.746Z,0.00
2018-10-02T06:53:48.165Z,0.00
2018-10-02T06:55:19.735Z,0.00
2018-10-02T06:56:51.399Z,0.00
2018-10-02T06:58:23.180Z,0.00
2018-10-02T06:59:54.455Z,0.00
2018-10-02T07:01:26.024Z,0.00
2018-10-02T07:02:57.651Z,0.00
2018-10-02T07:04:29.429Z,0.00
2018-10-02T07:06:00.743Z,0.00
2018-10-02T07:07:32.312Z,0.00
2018-10-02T07:09:03.925Z,0.00
2018-10-02T07:10:35.457Z,0.00
2018-10-02T07:12:07.028Z,0.00
2018-10-02T07:13:38.602Z,0.00
2018-10-02T07:15:10.257Z,0.00
2018-10-02T07:16:41.747Z,0.00
2018-10-02T07:18:13.318Z,0.00
2018-10-02T07:19:44.895Z,0.00
2018-10-02T07:21:16.461Z,0.00
2018-10-02T07:22:48.134Z,0.00
2018-10-02T07:24:19.606Z,0.00
2018-10-02T07:25:51.215Z,0.00
2018-10-02T07:27:22.972Z,0.00
2018-10-02T07:30:26.197Z,0.00
2018-10-02T07:31:57.467Z,0.00
2018-10-02T07:33:29.043Z,0.00
2018-10-02T07:35:00.611Z,0.00
2018-10-02T07:36:32.201Z,0.00
2018-10-02T07:38:03.756Z,0.00
2018-10-02T07:39:35.327Z,0.00
2018-10-02T07:41:06.904Z,0.00
2018-10-02T07:42:38.593Z,0.00
2018-10-02T07:44:10.045Z,0.00
2018-10-02T07:45:41.620Z,0.00
2018-10-02T07:47:13.223Z,0.00
2018-10-02T07:48:44.767Z,0.00
2018-10-02T07:50:16.335Z,0.00
2018-10-02T07:51:47.905Z,0.00
2018-10-02T07:53:19.478Z,0.00
2018-10-02T07:54:51.085Z,0.00
2018-10-02T07:56:22.639Z,0.00
2018-10-02T07:57:54.194Z,0.00
2018-10-02T07:59:25.798Z,0.00
2018-10-02T08:00:57.739Z,0.00
2018-10-02T08:02:28.973Z,0.00
2018-10-02T08:04:00.483Z,0.00
2018-10-02T08:05:32.057Z,0.00
2018-10-02T08:07:03.728Z,0.00
2018-10-02T08:08:35.227Z,0.00
2018-10-02T08:10:06.784Z,0.00
2018-10-02T08:11:38.416Z,0.00
2018-10-02T08:13:09.912Z,0.00
2018-10-02T08:14:41.545Z,0.00
2018-10-02T08:16:13.067Z,0.00
2018-10-02T08:17:44.878Z,0.00
2018-10-02T08:19:16.555Z,0.00
2018-10-02T08:20:47.780Z,0.00
2018-10-02T08:22:19.342Z,4.00
2018-10-02T08:23:50.982Z,4.00
2018-10-02T08:25:22.584Z,4.00
2018-10-02T08:26:54.131Z,4.00
2018-10-02T08:28:25.628Z,8.00
2018-10-02T08:29:57.369Z,16.00
2018-10-02T08:31:28.799Z,16.00
2018-10-02T08:33:00.401Z,28.00
2018-10-02T08:34:31.913Z,44.00
2018-10-02T08:36:03.658Z,60.00
2018-10-02T08:37:35.260Z,84.00
2018-10-02T08:39:06.737Z,116.00
2018-10-02T08:40:38.200Z,160.00
2018-10-02T08:42:09.771Z,224.00
2018-10-02T08:43:41.476Z,300.00
2018-10-02T08:46:44.496Z,480.00
2018-10-02T08:48:16.146Z,584.00
2018-10-02T08:49:47.653Z,676.00
2018-10-02T08:51:19.204Z,796.00
2018-10-02T08:52:51.080Z,916.00
2018-10-02T08:54:22.347Z,1040.00
2018-10-02T08:55:54.049Z,1164.00
2018-10-02T08:57:25.883Z,1316.00
2018-10-02T08:58:57.109Z,1452.00
2018-10-02T09:00:28.650Z,1564.00
2018-10-02T09:02:01.130Z,1692.00
2018-10-02T09:03:31.793Z,1804.00
2018-10-02T09:05:03.485Z,1940.00
2018-10-02T09:08:06.628Z,2412.00
2018-10-02T09:09:38.319Z,2708.00
2018-10-02T09:11:09.643Z,3040.00
2018-10-02T09:12:41.620Z,3404.00
2018-10-02T09:14:13.124Z,3856.00
2018-10-02T09:15:44.772Z,4804.00
2018-10-02T09:18:47.521Z,5480.00
2018-10-02T09:20:19.117Z,5796.00
2018-10-02T09:21:50.753Z,6048.00
2018-10-02T09:23:22.323Z,6200.00
2018-10-02T09:24:54.067Z,6252.00
2018-10-02T09:26:25.373Z,6080.00
2018-10-02T09:27:56.986Z,5236.00
2018-10-02T09:29:28.522Z,4888.00
2018-10-02T09:31:01.043Z,4876.00
2018-10-02T09:32:31.773Z,4884.00
2018-10-02T09:34:03.306Z,4948.00
2018-10-02T09:35:35.025Z,5080.00
2018-10-02T09:37:06.475Z,5316.00
2018-10-02T09:38:38.074Z,5632.00
2018-10-02T09:40:09.547Z,6032.00
2018-10-02T09:43:12.699Z,7248.00
2018-10-02T09:44:44.476Z,8036.00
2018-10-02T09:46:15.847Z,8724.00
2018-10-02T09:47:47.626Z,9240.00
2018-10-02T09:49:19.201Z,9580.00
2018-10-02T09:52:22.248Z,9376.00
2018-10-02T09:55:25.821Z,9264.00
2018-10-02T09:56:57.230Z,9872.00
2018-10-02T10:00:00.028Z,9816.00
2018-10-02T10:01:31.868Z,9524.00
2018-10-02T10:03:03.257Z,9556.00
2018-10-02T10:04:34.755Z,9760.00
2018-10-02T10:06:06.384Z,10104.00
2018-10-02T10:07:38.040Z,10560.00
2018-10-02T10:09:09.482Z,11196.00
2018-10-02T10:10:41.303Z,11944.00
2018-10-02T10:12:13.094Z,12684.00
2018-10-02T10:15:15.839Z,12848.00
2018-10-02T10:16:47.579Z,12284.00
2018-10-02T10:18:19.246Z,12520.00
2018-10-02T10:19:50.675Z,11140.00
2018-10-02T10:22:53.733Z,11288.00
2018-10-02T10:24:25.306Z,11700.00
2018-10-02T10:25:57.207Z,12120.00
2018-10-02T10:27:28.440Z,12976.00
2018-10-02T10:30:32.868Z,16672.00
2018-10-02T10:32:03.255Z,19200.00
2018-10-02T10:33:34.814Z,22496.00
2018-10-02T10:35:06.831Z,23392.00
2018-10-02T10:36:38.426Z,23744.00
2018-10-02T10:38:10.075Z,23648.00
2018-10-02T10:39:42.135Z,24768.00
2018-10-02T10:41:13.176Z,24704.00
2018-10-02T10:42:44.677Z,22560.00
2018-10-02T10:44:16.004Z,21376.00
2018-10-02T10:45:47.684Z,21408.00
2018-10-02T10:48:50.796Z,19776.00
2018-10-02T10:50:22.900Z,19936.00
2018-10-02T10:51:53.757Z,20448.00
2018-10-02T10:53:26.136Z,20800.00
2018-10-02T10:54:56.803Z,21664.00
2018-10-02T10:56:28.727Z,22016.00
2018-10-02T10:58:01.192Z,23136.00
2018-10-02T10:59:31.540Z,26720.00
2018-10-02T11:02:34.843Z,23904.00
2018-10-02T11:07:09.444Z,22784.00
2018-10-02T11:08:41.156Z,22656.00
2018-10-02T11:11:44.869Z,23936.00
2018-10-02T11:13:15.907Z,24512.00
2018-10-02T11:14:47.427Z,22624.00
2018-10-02T11:16:19.555Z,21280.00
2018-10-02T11:17:51.136Z,27008.00
2018-10-02T11:19:22.506Z,38016.00
2018-10-02T11:20:54.702Z,49440.00
2018-10-02T11:22:25.468Z,49664.00
2018-10-02T11:23:57.181Z,48960.00
2018-10-02T11:25:28.861Z,48384.00
2018-10-02T11:27:00.834Z,38240.00
2018-10-02T11:28:32.053Z,53088.00
2018-10-02T11:30:03.382Z,49568.00
2018-10-02T11:31:35.560Z,52544.00
2018-10-02T11:33:06.756Z,53760.00
2018-10-02T11:34:39.778Z,56928.00
2018-10-02T11:36:09.826Z,57024.00
2018-10-02T11:37:41.602Z,54848.00
2018-10-02T11:39:12.745Z,57088.00
2018-10-02T11:40:45.091Z,57504.00
2018-10-02T11:42:16.539Z,61088.00
2018-10-02T11:43:48.354Z,62336.00
2018-10-02T11:45:20.559Z,61568.00
2018-10-02T11:46:50.775Z,61792.00
2018-10-02T11:48:22.235Z,62176.00
2018-10-02T11:49:53.920Z,61952.00
2018-10-02T11:51:25.326Z,63520.00
2018-10-02T11:52:57.070Z,61312.00
2018-10-02T11:54:28.664Z,60160.00
2018-10-02T11:56:00.068Z,61920.00
2018-10-02T11:59:03.438Z,62656.00
2018-10-02T12:00:34.882Z,63264.00
2018-10-02T12:02:06.409Z,64704.00
2018-10-02T12:03:38.592Z,67936.00
2018-10-02T12:06:41.634Z,63264.00
2018-10-02T12:08:14.396Z,63392.00
2018-10-02T12:09:44.913Z,66304.00
2018-10-02T12:11:16.932Z,65504.00
2018-10-02T12:12:47.516Z,66528.00
2018-10-02T12:14:19.352Z,67968.00
2018-10-02T12:15:51.182Z,67936.00
2018-10-02T12:17:22.279Z,69632.00
2018-10-02T12:18:53.831Z,70720.00
2018-10-02T12:21:57.000Z,70848.00
2018-10-02T12:23:28.617Z,71008.00
2018-10-02T12:26:31.855Z,70560.00
2018-10-02T12:28:03.542Z,72128.00
2018-10-02T12:29:35.126Z,73120.00
2018-10-02T12:31:06.734Z,73664.00
2018-10-02T12:32:38.600Z,75520.00
2018-10-02T12:34:09.680Z,73152.00
2018-10-02T12:35:41.305Z,76448.00
2018-10-02T12:37:12.849Z,76032.00
2018-10-02T12:38:44.737Z,73088.00
2018-10-02T12:40:16.020Z,76768.00
2018-10-02T12:41:47.909Z,78368.00
2018-10-02T12:44:50.876Z,76352.00
2018-10-02T12:46:22.364Z,80096.00
2018-10-02T12:49:26.459Z,79040.00
2018-10-02T12:50:57.118Z,81632.00
2018-10-02T12:52:28.805Z,83168.00
2018-10-02T12:57:03.461Z,82016.00
2018-10-02T12:58:35.047Z,82048.00
2018-10-02T13:00:06.634Z,85216.00
2018-10-02T13:01:38.222Z,88128.00
2018-10-02T13:03:10.213Z,88160.00
2018-10-02T13:04:41.393Z,89440.00
2018-10-02T13:06:13.285Z,87744.00
2018-10-02T13:09:16.183Z,91200.00
2018-10-02T13:10:48.348Z,93696.00
2018-10-02T13:12:19.349Z,95008.00
2018-10-02T13:13:50.915Z,93216.00
2018-10-02T13:15:22.809Z,97344.00
2018-10-02T13:16:54.368Z,96224.00
2018-10-02T13:18:25.674Z,98112.00
2018-10-02T13:19:57.310Z,97984.00
2018-10-02T13:24:32.176Z,87872.00
2018-10-02T13:26:03.611Z,90496.00
2018-10-02T13:29:06.796Z,88096.00
2018-10-02T13:30:38.983Z,91328.00
2018-10-02T13:32:09.970Z,95840.00
2018-10-02T13:33:41.646Z,93504.00
2018-10-02T13:35:13.135Z,95840.00
2018-10-02T13:36:44.724Z,97760.00
2018-10-02T13:39:47.940Z,97056.00
2018-10-02T13:41:19.488Z,100224.00
2018-10-02T13:42:51.381Z,97728.00
2018-10-02T13:44:22.677Z,97536.00
2018-10-02T13:50:29.242Z,107872.00
2018-10-02T13:52:00.601Z,108608.00
2018-10-02T13:53:32.191Z,101280.00
2018-10-02T13:55:03.775Z,103904.00
2018-10-02T13:58:07.050Z,100352.00
2018-10-02T14:01:10.392Z,102464.00
2018-10-02T14:04:13.438Z,95168.00
2018-10-02T14:05:44.887Z,101216.00
2018-10-02T14:07:16.476Z,110784.00
2018-10-02T14:08:48.061Z,108832.00
2018-10-02T14:13:23.084Z,109952.00
2018-10-02T14:16:26.003Z,100608.00
2018-10-02T14:17:57.590Z,104192.00
2018-10-02T14:19:29.234Z,103904.00
2018-10-02T14:21:01.074Z,93632.00
2018-10-02T14:22:33.107Z,98944.00
2018-10-02T14:24:04.250Z,96544.00
2018-10-02T14:25:35.639Z,105376.00
2018-10-02T14:27:07.411Z,108288.00
2018-10-02T14:28:39.215Z,111424.00
2018-10-02T14:30:11.218Z,112128.00
2018-10-02T14:31:42.358Z,92224.00
2018-10-02T14:33:14.238Z,32000.00
2018-10-02T14:34:45.993Z,92736.00
2018-10-02T14:36:16.982Z,102432.00
2018-10-02T14:37:48.469Z,111040.00
2018-10-02T14:39:20.340Z,114144.00
2018-10-02T14:40:51.953Z,118496.00
2018-10-02T14:42:23.416Z,122080.00
2018-10-02T14:43:56.389Z,117408.00
2018-10-02T14:45:27.796Z,107744.00
2018-10-02T14:46:58.014Z,111584.00
2018-10-02T14:48:29.416Z,107744.00
2018-10-02T14:50:01.143Z,108704.00
2018-10-02T14:53:05.102Z,105920.00
2018-10-02T14:54:36.318Z,109216.00
2018-10-02T14:56:07.902Z,108672.00
2018-10-02T14:57:40.488Z,110240.00
2018-10-02T14:59:11.790Z,115040.00
2018-10-02T15:00:42.545Z,118976.00
2018-10-02T15:02:13.937Z,116096.00
2018-10-02T15:03:46.303Z,121760.00
2018-10-02T15:05:17.550Z,123808.00
2018-10-02T15:06:48.746Z,123680.00
2018-10-02T15:08:21.159Z,123264.00
2018-10-02T15:09:52.884Z,33984.00
2018-10-02T15:11:23.977Z,35776.00
2018-10-02T15:12:55.013Z,108000.00
2018-10-02T15:14:26.891Z,129600.00
2018-10-02T15:15:58.162Z,44640.00
2018-10-02T15:17:29.626Z,41088.00
2018-10-02T15:19:01.286Z,42880.00
2018-10-02T15:20:32.780Z,44288.00
2018-10-02T15:22:04.889Z,104352.00
2018-10-02T15:25:07.544Z,37312.00
2018-10-02T15:26:39.432Z,38816.00
2018-10-02T15:28:11.222Z,43552.00
2018-10-02T15:32:45.680Z,125536.00
2018-10-02T15:34:17.670Z,121472.00
2018-10-02T15:35:48.650Z,124000.00
2018-10-02T15:37:20.564Z,125408.00
2018-10-02T15:40:23.721Z,122368.00
2018-10-02T15:43:26.800Z,117696.00
2018-10-02T15:44:58.192Z,119520.00
2018-10-02T15:46:30.183Z,111008.00
2018-10-02T15:49:32.962Z,129344.00
2018-10-02T15:51:04.603Z,124224.00
2018-10-02T15:52:36.248Z,127712.00
2018-10-02T15:54:07.777Z,132608.00
2018-10-02T15:55:39.330Z,130560.00
2018-10-02T15:57:11.228Z,119360.00
2018-10-02T15:58:42.518Z,93600.00
2018-10-02T16:00:15.239Z,95424.00
2018-10-02T16:01:46.005Z,126624.00
2018-10-02T16:03:17.297Z,127776.00
2018-10-02T16:04:49.042Z,129568.00
2018-10-02T16:06:21.008Z,121696.00
2018-10-02T16:07:52.074Z,127200.00
2018-10-02T16:09:24.189Z,124352.00
2018-10-02T16:10:55.260Z,118752.00
2018-10-02T16:12:27.162Z,120928.00
2018-10-02T16:13:58.904Z,122656.00
2018-10-02T16:17:01.638Z,122752.00
2018-10-02T16:18:34.150Z,122944.00
2018-10-02T16:20:05.267Z,31168.00
2018-10-02T16:21:36.411Z,35072.00
2018-10-02T16:23:08.305Z,38368.00
2018-10-02T16:24:42.873Z,43488.00
2018-10-02T16:27:42.994Z,101472.00
2018-10-02T16:29:14.363Z,34720.00
2018-10-02T16:30:46.218Z,34112.00
2018-10-02T16:32:17.874Z,32800.00
2018-10-02T16:33:50.663Z,84800.00
2018-10-02T16:36:52.307Z,32896.00
2018-10-02T16:46:02.037Z,60288.00
2018-10-02T16:47:33.414Z,35648.00
2018-10-02T16:49:05.371Z,34752.00
2018-10-02T16:50:37.502Z,33504.00
2018-10-02T16:52:08.161Z,32064.00
2018-10-02T16:53:40.049Z,31168.00
2018-10-02T16:55:11.581Z,31616.00
2018-10-02T16:56:43.118Z,32960.00
2018-10-02T16:58:14.499Z,32640.00
2018-10-02T16:59:46.997Z,30848.00
2018-10-02T17:01:17.667Z,28256.00
2018-10-02T17:02:49.699Z,27936.00
2018-10-02T17:04:22.167Z,29984.00
2018-10-02T17:05:52.669Z,33248.00
2018-10-02T17:10:28.122Z,36608.00
2018-10-02T17:11:59.201Z,37984.00
2018-10-02T17:13:31.322Z,40160.00
2018-10-02T17:16:33.564Z,44160.00
2018-10-02T17:18:05.131Z,47936.00
2018-10-02T17:19:36.947Z,49760.00
2018-10-02T17:21:10.195Z,52480.00
2018-10-02T17:22:40.589Z,106944.00
2018-10-02T17:24:12.280Z,59584.00
2018-10-02T17:25:44.122Z,54464.00
2018-10-02T17:27:14.691Z,44000.00
2018-10-02T17:28:46.635Z,42720.00
2018-10-02T17:30:17.808Z,39168.00
2018-10-02T17:31:50.054Z,36192.00
2018-10-02T17:33:20.973Z,33472.00
2018-10-02T17:34:52.673Z,31776.00
2018-10-02T17:36:24.350Z,32000.00
2018-10-02T17:37:55.986Z,32864.00
2018-10-02T17:39:27.514Z,33664.00
2018-10-02T17:40:59.481Z,31136.00
2018-10-02T17:42:30.477Z,27680.00
2018-10-02T17:45:33.845Z,37504.00
2018-10-02T17:48:36.839Z,42560.00
2018-10-02T17:50:08.783Z,36832.00
2018-10-02T17:51:40.271Z,38656.00
2018-10-02T17:53:11.579Z,50240.00
2018-10-02T17:54:43.232Z,50560.00
2018-10-02T17:56:15.762Z,59136.00
2018-10-02T17:57:46.292Z,49856.00
2018-10-02T17:59:18.272Z,71680.00
2018-10-02T18:00:49.790Z,83776.00
2018-10-02T18:03:52.793Z,66176.00
2018-10-02T18:05:24.579Z,113632.00
2018-10-02T18:06:55.810Z,111360.00
2018-10-02T18:08:27.384Z,109824.00
2018-10-02T18:09:59.263Z,104768.00
2018-10-02T18:11:30.705Z,60544.00
2018-10-02T18:13:02.447Z,58112.00
2018-10-02T18:14:33.933Z,82592.00
2018-10-02T18:16:05.371Z,76800.00
2018-10-02T18:17:37.044Z,67872.00
2018-10-02T18:19:09.682Z,76736.00
2018-10-02T18:20:40.390Z,83264.00
2018-10-02T18:22:12.025Z,90176.00
2018-10-02T18:23:44.602Z,82240.00
2018-10-02T18:25:15.983Z,84224.00
2018-10-02T18:29:50.181Z,79872.00
2018-10-02T18:31:21.650Z,81280.00
2018-10-02T18:34:25.273Z,81984.00
2018-10-02T18:35:56.011Z,79424.00
2018-10-02T18:37:27.987Z,78880.00
2018-10-02T18:38:59.290Z,75360.00
2018-10-02T18:40:31.524Z,63680.00
2018-10-02T18:42:02.806Z,60032.00
2018-10-02T18:43:34.151Z,54880.00
2018-10-02T18:45:05.405Z,63904.00
2018-10-02T18:46:37.470Z,61600.00
2018-10-02T18:48:10.195Z,54752.00
2018-10-02T18:49:40.954Z,45856.00
2018-10-02T18:51:12.051Z,45056.00
2018-10-02T18:52:44.527Z,47488.00
2018-10-02T18:54:15.909Z,50400.00
2018-10-02T18:55:47.407Z,44928.00
2018-10-02T18:57:18.165Z,41568.00
2018-10-02T18:58:50.397Z,42720.00
2018-10-02T19:00:21.353Z,41888.00
2018-10-02T19:01:52.992Z,39872.00
2018-10-02T19:03:24.509Z,32544.00
2018-10-02T19:04:55.991Z,31840.00
2018-10-02T19:06:27.780Z,34368.00
2018-10-02T19:07:59.163Z,35648.00
2018-10-02T19:09:30.740Z,42624.00
2018-10-02T19:11:02.626Z,43904.00
2018-10-02T19:14:05.777Z,44832.00
2018-10-02T19:15:37.069Z,46208.00
2018-10-02T19:20:12.137Z,42720.00
2018-10-02T19:21:43.401Z,28192.00
2018-10-02T19:23:15.185Z,27296.00
2018-10-02T19:24:46.620Z,28800.00
2018-10-02T19:27:49.728Z,18368.00
2018-10-02T19:30:52.896Z,13024.00
2018-10-02T19:33:56.219Z,14076.00
2018-10-02T19:36:59.419Z,13388.00
2018-10-02T19:38:30.797Z,12788.00
2018-10-02T19:40:02.377Z,12832.00
2018-10-02T19:41:33.959Z,12176.00
2018-10-02T19:43:05.538Z,11744.00
2018-10-02T19:44:37.120Z,10920.00
2018-10-02T19:46:09.002Z,10416.00
2018-10-02T19:47:40.800Z,9540.00
2018-10-02T19:49:11.859Z,8944.00
2018-10-02T19:52:15.641Z,7236.00
2018-10-02T19:53:46.619Z,6784.00
2018-10-02T19:56:50.056Z,6504.00
2018-10-02T19:58:21.333Z,5660.00
2018-10-02T19:59:52.959Z,4908.00
2018-10-02T20:01:24.490Z,4404.00
2018-10-02T20:02:56.066Z,3984.00
2018-10-02T20:04:27.645Z,3728.00
2018-10-02T20:05:59.458Z,3528.00
2018-10-02T20:07:31.423Z,3576.00
2018-10-02T20:09:02.581Z,3456.00
2018-10-02T20:10:34.086Z,3424.00
2018-10-02T20:12:05.535Z,2980.00
2018-10-02T20:16:40.378Z,2308.00
2018-10-02T20:18:12.149Z,1996.00
2018-10-02T20:19:43.424Z,1848.00
2018-10-02T20:21:15.005Z,1672.00
2018-10-02T20:22:46.578Z,1524.00
2018-10-02T20:25:49.734Z,1460.00
2018-10-02T20:27:21.445Z,1384.00
2018-10-02T20:28:52.987Z,1592.00
2018-10-02T20:30:24.781Z,1596.00
2018-10-02T20:31:56.043Z,1544.00
2018-10-02T20:33:27.622Z,1236.00
2018-10-02T20:34:59.398Z,1000.00
2018-10-02T20:36:30.807Z,800.00
2018-10-02T20:39:33.926Z,576.00
2018-10-02T20:41:05.502Z,452.00
2018-10-02T20:42:37.084Z,416.00
2018-10-02T20:45:40.435Z,332.00
2018-10-02T20:47:12.532Z,320.00
2018-10-02T20:48:43.385Z,332.00
2018-10-02T20:50:14.963Z,300.00
2018-10-02T20:51:46.538Z,260.00
2018-10-02T20:53:18.114Z,212.00
2018-10-02T20:54:49.696Z,180.00
2018-10-02T20:56:21.266Z,160.00
2018-10-02T20:57:52.842Z,132.00
2018-10-02T20:59:24.419Z,96.00
2018-10-02T21:00:56.298Z,84.00
2018-10-02T21:02:27.570Z,64.00
2018-10-02T21:03:59.146Z,52.00